ftp/pub/mcmurdo/arrivalheights/2008/March/080314.txt

Download

3/14/08
Time         Wind Dir   Wind Spd  Wind Gust     Hum In   Humidity    Temp In       Temp  Raw Barom   Tot Rain
                    °        kts        kts          %          %         °C         °C         mb         mm
0:00               85         14         16         29        100       18.4      -19.2     973.66       0.00
0:20               91         12         15         30        100       18.6      -19.1     973.90       0.00
0:40               93          9         14         26        100       18.8      -19.3     974.07       0.00
1:00               74         12         12         21        100       19.1      -19.7     974.24       0.00
1:20               62          9         17         25        100       19.1      -19.7     974.27       0.00
1:40               78         17         19         27        100       19.1      -19.7     974.27       0.00
2:00               96         18         19         28        100       19.1      -19.6     974.30       0.00
2:20              101         14         19         30        100       19.2      -19.5     974.64       0.00
2:40              108         19         23         30        100       19.3      -19.9     974.88       0.00
3:00              103         19         19         30        100       19.5      -20.3     975.22       0.00
3:20              104         21         23         30        100       19.6      -20.3     975.19       0.00
3:40              107         23         23         31        100       19.8      -20.5     975.35       0.00
4:00              102         18         23         31        100       19.8      -20.7     975.29       0.00
4:20              121         21         26         31        100       19.9      -20.9     975.46       0.00
4:40              125         21         24         30        100       20.2      -20.6     975.93       0.00
5:00              127         28         33         25        100       20.5      -20.6     975.79       0.00
5:20              139         29         30         22        100       20.7      -18.9     976.00       0.00
5:40              123         22         26         29        100       20.6      -19.9     976.40       0.00
6:00              109         23         25         31        100       20.6      -20.6     976.47       0.00
6:20              154         21         23         25        100       20.5      -20.7     976.44       0.00
6:40              120         20         21         26        100       19.4      -20.1     976.88       0.00
7:00              112         14         17         31        100       19.4      -20.9     977.15       0.00
7:20               72         13         16         27        100       19.6      -20.1     977.29       0.00
7:40               77         12         12         22        100       19.8      -19.9     977.49       0.00
8:00              118         12         13         28        100       19.8      -19.6     977.56       0.00
8:20               92         13         14         31        100       19.8      -20.1     977.56       0.00
8:40              102         15         16         32        100       19.9      -19.7     977.69       0.00
9:00              121         12         17         27        100       20.2      -19.3     977.56       0.00
9:20              130          9         10         25        100       20.6      -19.5     977.66       0.00
9:40              111          9         13         24        100       19.7      -19.4     977.66       0.00
10:00             115         11         16         30        100       19.6      -19.5     977.59       0.00
10:20             106         15         15         32        100       19.8      -19.4     977.45       0.00
10:40             106         14         18         25        100       20.2      -19.1     977.32       0.00
11:00              72         10         11         23        100       20.5      -19.5     977.39       0.00
11:20              50         16         16         27        100       20.4      -20.5     977.45       0.00
11:40              48         14         17         29        100       20.3      -21.1     977.45       0.00
12:00              50         13         17         30        100       20.2      -20.6     977.42       0.00
12:20              43         12         17         31        100       20.1      -20.6     977.39       0.00
12:40              52          8         10         32        100       20.0      -19.2     977.32       0.00
13:00              57          7         12         26        100       20.3      -18.8     977.32       0.00
13:20              59          4         10         23        100       20.5      -17.9     977.29       0.00
13:40             111         12         13         26        100       20.6      -16.9     977.29       0.00
14:00              96         10         10         31        100       20.6      -16.7     977.32       0.00
14:20              97          5          8         33        100       20.7      -16.4     977.12       0.00
14:40             129          5          8         21        100       20.3      -15.6     977.01       0.00
15:00             117          5         10         28        100       19.7      -16.2     977.08       0.00
15:20             140          8         10         32        100       19.8      -16.1     977.05       0.00
15:40             157          3          5         27        100       20.2      -15.5     977.01       0.00
16:00             131          7         10         24        100       20.6      -14.2     976.95       0.00
16:20             123          5          6         23        100       19.8      -14.9     976.95       0.00
16:40             111          8          9         29        100       19.8      -17.0     976.74       0.00
17:00             109          5          6         32        100       19.9      -17.3     976.71       0.00
17:20             114          2          3         27        100       20.3      -15.7     976.64       0.00
17:40             148          2          2         24        100       20.7      -15.1     976.47       0.00
18:00             139          0          1         25        100       19.8      -15.5     976.51       0.00
18:20             140          0          0         30        100       19.8      -14.9     976.51       0.00
18:40             139          1          2         32        100       19.9      -17.7     976.34       0.00
19:00               3          1          3         27        100       20.3      -18.8     976.37       0.00
19:20              13          1          1         24        100       20.7      -18.1     976.20       0.00
19:40              13          1          2         24        100       19.9      -18.5     976.07       0.00
20:00              13          1          2         30        100       19.8      -18.4     976.00       0.00
20:20              13          0          0         32        100       19.9      -18.7     975.90       0.00
20:40              13          0          0         27        100       20.3      -18.8     975.93       0.00
21:00              13          2          2         24        100       20.7      -19.4     975.69       0.00
21:20              13          2          2         26        100       19.8      -19.9     975.73       0.00
21:40              13          1          2         30        100       19.8      -20.2     975.59       0.00
22:00              13          0          1         32        100       20.0      -20.3     975.56       0.00
22:20              13          1          2         28        100       20.3      -20.2     975.42       0.00
22:40              13          0          0         24        100       20.7      -19.9     975.25       0.00
23:00              13          0          0         22        100       20.4      -20.2     975.02       0.00
23:20              13          2          2         28        100       19.8      -20.4     975.05       0.00
23:40              22          3          4         31        100       19.9      -20.1     974.98       0.00